Time;durP1;ratioP1;P1;durP2;ratioP2;P2;SDS_P1;SDS_P2;PMS_P1;PMS_P2;Temp;Humidity;BMP_temperature;BMP_pressure;BME280_temperature;BME280_humidity;BME280_pressure;Samples;Min_cycle;Max_cycle;Signal;HPM_P1;HPM_P2
2022/03/26 00:02:02;;;;;;;35.27;17.30;;;;;;;10.54;62.39;101346.50;10252769;28;20700;-60
2022/03/26 00:07:05;;;;;;;37.90;18.13;;;;;;;10.40;62.94;101339.53;10252686;29;20730;-62
2022/03/26 00:12:09;;;;;;;36.87;17.63;;;;;;;10.29;63.50;101340.28;10252561;28;20744;-64
2022/03/26 00:17:14;;;;;;;34.70;16.63;;;;;;;10.09;64.40;101334.97;10252752;28;20224;-62
2022/03/26 00:22:18;;;;;;;36.23;18.80;;;;;;;9.87;65.59;101334.75;10252407;28;20220;-65
2022/03/26 00:27:22;;;;;;;37.63;18.07;;;;;;;9.84;65.60;101326.94;10252161;28;20224;-63
2022/03/26 00:32:26;;;;;;;38.77;18.93;;;;;;;9.61;66.19;101315.50;10254578;28;20212;-63
2022/03/26 00:37:30;;;;;;;35.27;16.67;;;;;;;9.64;66.48;101318.13;10259876;28;20260;-62
2022/03/26 00:42:33;;;;;;;37.27;19.57;;;;;;;9.65;65.98;101300.00;10259419;29;20289;-61
2022/03/26 00:47:38;;;;;;;35.83;18.90;;;;;;;9.59;67.00;101307.72;10259423;28;20267;-63
2022/03/26 00:52:41;;;;;;;34.87;18.03;;;;;;;9.56;67.00;101314.59;10259078;28;20247;-62
2022/03/26 00:57:44;;;;;;;32.33;15.20;;;;;;;9.75;67.11;101308.72;10259121;28;20219;-63
2022/03/26 01:02:49;;;;;;;31.33;13.87;;;;;;;9.96;66.00;101304.56;10258592;28;20684;-63
2022/03/26 01:07:52;;;;;;;32.33;13.27;;;;;;;9.91;66.61;101298.47;10258514;28;20231;-64
2022/03/26 01:12:56;;;;;;;34.30;16.47;;;;;;;9.65;67.14;101299.13;10258629;28;20538;-63
2022/03/26 01:18:00;;;;;;;38.80;16.77;;;;;;;9.68;66.49;101288.81;10258245;28;20220;-64
2022/03/26 01:23:04;;;;;;;38.47;19.00;;;;;;;9.46;67.54;101285.13;10257899;28;20224;-66
2022/03/26 01:28:08;;;;;;;41.47;18.70;;;;;;;9.37;67.81;101291.97;10258108;29;20228;-63
2022/03/26 01:33:12;;;;;;;40.00;18.60;;;;;;;9.18;68.90;101288.34;10257606;29;20208;-64
2022/03/26 01:38:16;;;;;;;37.17;18.97;;;;;;;9.16;68.71;101288.28;10257530;29;20553;-62
2022/03/26 01:43:19;;;;;;;40.83;18.67;;;;;;;8.96;70.64;101279.44;10257187;28;20218;-63
2022/03/26 01:48:24;;;;;;;33.43;16.97;;;;;;;8.96;70.57;101271.69;10256922;28;20231;-64
2022/03/26 01:53:27;;;;;;;33.30;18.20;;;;;;;9.02;70.16;101271.75;10259442;28;20220;-62
2022/03/26 01:58:30;;;;;;;41.17;17.73;;;;;;;9.03;70.25;101262.25;10260021;29;20220;-64
2022/03/26 02:03:38;;;;;;;34.93;18.47;;;;;;;8.98;70.84;101269.09;10259774;29;20243;-63
2022/03/26 02:08:41;;;;;;;38.90;18.07;;;;;;;8.89;71.09;101245.69;10259453;29;20246;-62
2022/03/26 02:13:54;;;;;;;41.70;18.43;;;;;;;8.78;72.04;101239.56;10259308;29;20232;-63
2022/03/26 02:19:00;;;;;;;33.70;16.90;;;;;;;8.79;72.19;101242.16;10259044;29;20228;-63
2022/03/26 02:24:06;;;;;;;31.67;17.80;;;;;;;8.79;72.38;101230.94;10259103;29;20760;-64
2022/03/26 02:29:12;;;;;;;37.37;17.00;;;;;;;8.71;72.57;101220.50;10258687;29;20230;-62
2022/03/26 02:34:15;;;;;;;34.67;16.37;;;;;;;8.97;71.91;101228.53;10258303;29;20226;-64
2022/03/26 02:39:21;;;;;;;40.90;17.53;;;;;;;8.65;73.28;101210.06;10258252;29;20220;-62
2022/03/26 02:44:24;;;;;;;34.40;16.60;;;;;;;8.75;72.81;101213.66;10258251;28;20216;-63
2022/03/26 02:49:27;;;;;;;36.57;17.10;;;;;;;8.75;73.75;101203.31;10257859;28;20220;-64
2022/03/26 02:54:34;;;;;;;35.70;17.07;;;;;;;8.60;74.01;101183.28;10257237;28;20224;-63
2022/03/26 02:59:37;;;;;;;32.07;15.63;;;;;;;8.58;74.93;101184.97;10257577;28;20339;-63
2022/03/26 03:04:40;;;;;;;32.17;16.60;;;;;;;8.48;75.23;101171.91;10257276;29;20262;-63
2022/03/26 03:09:45;;;;;;;36.73;18.70;;;;;;;8.40;76.27;101178.72;10257358;29;20219;-65
2022/03/26 03:14:48;;;;;;;35.00;18.37;;;;;;;8.54;75.33;101165.09;10257199;29;20217;-63
2022/03/26 03:19:51;;;;;;;38.90;18.43;;;;;;;8.42;76.13;101152.03;10256844;29;20558;-63
2022/03/26 03:24:56;;;;;;;39.63;18.80;;;;;;;8.39;77.01;101158.91;10256923;28;20232;-60
2022/03/26 03:29:59;;;;;;;40.90;19.43;;;;;;;8.37;78.20;101151.09;10256495;28;20231;-65
2022/03/26 03:35:05;;;;;;;36.40;17.07;;;;;;;8.57;77.27;101157.38;10256551;29;20538;-61
2022/03/26 03:40:11;;;;;;;41.83;19.93;;;;;;;8.47;77.94;101152.97;10256690;29;20375;-63
2022/03/26 03:45:14;;;;;;;37.03;17.57;;;;;;;8.52;78.00;101147.84;10256374;29;20223;-64
2022/03/26 03:50:18;;;;;;;31.50;16.83;;;;;;;8.41;78.82;101141.66;10256175;29;20228;-64
2022/03/26 03:55:24;;;;;;;35.07;17.13;;;;;;;8.44;78.51;101142.56;10256281;29;20308;-64
2022/03/26 04:00:27;;;;;;;40.43;21.40;;;;;;;8.34;79.19;101140.72;10256300;29;20230;-66
2022/03/26 04:05:31;;;;;;;36.53;17.57;;;;;;;8.44;78.16;101129.63;10256390;28;20240;-64
2022/03/26 04:10:35;;;;;;;36.93;16.90;;;;;;;8.54;77.75;101113.34;10263807;29;20230;-63
2022/03/26 04:15:39;;;;;;;35.57;16.60;;;;;;;8.47;77.70;101114.16;10263894;29;20236;-63
2022/03/26 04:20:42;;;;;;;49.67;22.80;;;;;;;8.31;79.29;101104.50;10263497;29;20559;-63
2022/03/26 04:25:47;;;;;;;33.67;16.33;;;;;;;8.31;79.25;101101.03;10263417;29;20230;-66
2022/03/26 04:30:50;;;;;;;33.17;17.67;;;;;;;8.31;79.01;101081.22;10263277;29;20236;-63
2022/03/26 04:35:53;;;;;;;37.50;16.57;;;;;;;8.25;79.40;101091.50;10262728;29;20530;-63
2022/03/26 04:40:58;;;;;;;37.07;17.43;;;;;;;8.38;78.79;101084.75;10262833;28;20558;-65
2022/03/26 04:46:01;;;;;;;38.57;16.83;;;;;;;8.36;78.68;101089.91;10262591;29;20216;-62
2022/03/26 04:51:05;;;;;;;37.23;18.27;;;;;;;8.36;79.42;101105.41;10262149;29;20235;-61
2022/03/26 04:56:09;;;;;;;36.77;16.07;;;;;;;8.33;79.72;101082.13;10262351;29;20247;-61
2022/03/26 05:01:12;;;;;;;34.10;16.30;;;;;;;8.45;79.49;101081.38;10262267;29;20244;-63
2022/03/26 05:06:16;;;;;;;33.90;16.77;;;;;;;8.50;78.54;101080.56;10261866;29;20236;-64
2022/03/26 05:11:21;;;;;;;35.17;16.93;;;;;;;8.39;79.60;101074.41;10261457;29;20729;-66
2022/03/26 05:16:24;;;;;;;36.17;16.57;;;;;;;8.24;80.24;101069.09;10261451;28;20569;-65
2022/03/26 05:21:28;;;;;;;29.10;14.30;;;;;;;8.52;80.07;101059.88;10260849;28;20226;-63
2022/03/26 05:26:32;;;;;;;31.83;15.43;;;;;;;8.53;79.44;101043.50;10261117;28;20704;-64
2022/03/26 05:31:36;;;;;;;30.80;15.33;;;;;;;8.56;79.47;101036.63;10260734;28;20223;-62
2022/03/26 05:36:40;;;;;;;37.60;17.43;;;;;;;8.70;78.75;101028.97;10260610;28;20284;-65
2022/03/26 05:41:45;;;;;;;30.60;16.10;;;;;;;8.69;79.14;101028.13;10260592;29;20230;-64
2022/03/26 05:46:48;;;;;;;46.17;15.73;;;;;;;8.69;79.54;101029.84;10260493;28;20550;-64
2022/03/26 05:51:51;;;;;;;33.17;16.57;;;;;;;8.76;79.71;101040.25;10260062;29;20231;-62
2022/03/26 05:56:56;;;;;;;33.23;16.27;;;;;;;8.72;79.93;101038.50;10259854;29;20220;-63
2022/03/26 06:01:59;;;;;;;36.37;16.83;;;;;;;8.94;78.99;101030.03;10259589;29;20236;-64
2022/03/26 06:07:03;;;;;;;33.97;16.20;;;;;;;8.93;79.77;101046.44;10260107;28;20220;-65
2022/03/26 06:12:09;;;;;;;31.97;14.63;;;;;;;9.05;79.27;101027.53;10259287;28;20224;-65
2022/03/26 06:17:12;;;;;;;27.63;13.40;;;;;;;9.13;78.98;101013.78;10257515;29;20228;-64
2022/03/26 06:22:15;;;;;;;30.30;16.27;;;;;;;9.15;79.48;101006.00;10257537;29;20216;-64
2022/03/26 06:27:20;;;;;;;32.97;14.97;;;;;;;9.32;78.82;101000.06;10257719;29;20611;-63
2022/03/26 06:32:23;;;;;;;31.67;15.83;;;;;;;9.47;78.13;100995.81;10256809;28;20235;-62
2022/03/26 06:37:26;;;;;;;29.50;14.23;;;;;;;9.59;77.59;100985.50;10257308;29;20218;-61
2022/03/26 06:42:31;;;;;;;32.50;14.87;;;;;;;9.66;77.63;100977.78;10256415;28;20224;-63
2022/03/26 06:47:34;;;;;;;33.03;14.10;;;;;;;9.85;76.96;100987.34;10255094;29;20220;-63
2022/03/26 06:52:38;;;;;;;33.87;13.83;;;;;;;9.89;77.06;100991.66;10256322;28;20224;-66
2022/03/26 06:57:43;;;;;;;30.20;12.47;;;;;;;10.08;76.39;100987.38;10254608;29;20286;-63
2022/03/26 07:02:47;;;;;;;26.60;14.40;;;;;;;10.34;75.83;100980.53;10254222;28;20282;-60
2022/03/26 07:07:50;;;;;;;24.57;12.10;;;;;;;10.43;75.34;100970.16;10254390;28;20234;-62
2022/03/26 07:12:55;;;;;;;19.27;10.77;;;;;;;10.84;74.02;100973.59;10254039;29;20226;-62
2022/03/26 07:17:59;;;;;;;31.67;12.43;;;;;;;10.96;72.88;100952.78;10254051;29;20208;-61
2022/03/26 07:23:02;;;;;;;24.87;11.33;;;;;;;10.91;73.09;100957.13;10254572;28;20196;-61
2022/03/26 07:28:07;;;;;;;21.03;11.83;;;;;;;11.01;72.24;100960.59;9911412;28;10000354;-61
2022/03/26 07:33:10;;;;;;;31.10;14.10;;;;;;;11.11;72.08;100954.50;10253253;28;20279;-59
2022/03/26 07:38:14;;;;;;;32.60;13.30;;;;;;;11.08;71.75;100952.75;10253493;28;20206;-61
2022/03/26 07:43:18;;;;;;;27.07;11.73;;;;;;;11.19;71.57;100982.19;10252946;28;20203;-61
2022/03/26 07:48:22;;;;;;;26.23;13.27;;;;;;;11.06;72.02;100954.50;10253045;28;20192;-62
2022/03/26 07:53:27;;;;;;;28.33;12.87;;;;;;;11.35;71.23;100944.91;10252708;28;20238;-65
2022/03/26 07:58:34;;;;;;;25.57;12.80;;;;;;;11.45;71.06;100959.59;10252148;28;20212;-64
2022/03/26 08:03:37;;;;;;;20.87;12.30;;;;;;;11.70;69.97;100954.31;10252547;28;20228;-60
2022/03/26 08:08:41;;;;;;;24.23;12.17;;;;;;;11.80;69.84;100961.19;10251875;28;20306;-64
2022/03/26 08:13:46;;;;;;;26.17;11.43;;;;;;;11.98;69.51;100941.13;10252406;28;20231;-65
2022/03/26 08:18:49;;;;;;;25.97;10.63;;;;;;;12.11;69.55;100937.56;10253280;28;20220;-64
2022/03/26 08:23:54;;;;;;;22.43;11.63;;;;;;;12.30;69.10;100936.56;10251853;28;20219;-62
2022/03/26 08:29:00;;;;;;;25.63;14.63;;;;;;;12.53;68.37;100941.56;10251719;28;20231;-61
2022/03/26 08:34:04;;;;;;;20.33;10.73;;;;;;;12.86;67.14;100930.81;10252292;29;20708;-66
2022/03/26 08:39:07;;;;;;;22.07;10.70;;;;;;;13.00;67.02;100933.28;10252103;28;20224;-63
2022/03/26 08:44:12;;;;;;;19.33;10.70;;;;;;;13.33;66.45;100949.44;10252155;29;20227;-59
2022/03/26 08:49:15;;;;;;;16.77;8.30;;;;;;;13.34;66.67;100937.28;10251910;28;20227;-65
2022/03/26 08:54:19;;;;;;;15.53;8.47;;;;;;;13.51;67.03;100946.59;10254953;28;20220;-62
2022/03/26 08:59:24;;;;;;;21.90;10.67;;;;;;;13.59;66.87;100957.81;10259042;28;20238;-65
2022/03/26 09:04:27;;;;;;;21.80;10.87;;;;;;;13.52;67.58;100958.78;10258628;28;20254;-65
2022/03/26 09:09:30;;;;;;;28.63;11.90;;;;;;;13.48;67.49;100949.25;10256895;28;20231;-63
2022/03/26 09:14:35;;;;;;;27.60;12.80;;;;;;;13.35;68.66;100960.72;10256150;28;20426;-64
2022/03/26 09:19:38;;;;;;;21.53;11.90;;;;;;;13.36;68.53;100967.66;10257995;28;20228;-62
2022/03/26 09:24:42;;;;;;;23.23;11.03;;;;;;;13.31;67.71;100964.25;10257917;28;20232;-62
2022/03/26 09:29:47;;;;;;;25.40;12.03;;;;;;;13.14;68.32;100960.09;10257619;28;20303;-65
2022/03/26 09:34:50;;;;;;;27.37;12.57;;;;;;;13.18;68.61;100960.06;10257468;29;20920;-62
2022/03/26 09:39:54;;;;;;;33.70;12.40;;;;;;;13.35;67.75;100972.91;10257425;28;20228;-62
2022/03/26 09:44:59;;;;;;;25.80;11.70;;;;;;;13.37;67.30;100960.72;10257138;29;20220;-64
2022/03/26 09:50:04;;;;;;;21.07;11.90;;;;;;;13.48;67.09;100964.03;10256309;29;20224;-62
2022/03/26 09:55:11;;;;;;;20.53;12.03;;;;;;;13.23;67.66;100962.59;10257675;28;20228;-62
2022/03/26 10:00:17;;;;;;;24.70;12.33;;;;;;;13.07;68.64;100987.97;10256603;28;20293;-64
2022/03/26 10:05:20;;;;;;;19.43;11.70;;;;;;;12.89;69.67;100982.88;10256038;28;20250;-63
2022/03/26 10:10:24;;;;;;;23.30;12.27;;;;;;;12.80;70.44;100993.41;10256219;28;20239;-63
2022/03/26 10:15:29;;;;;;;21.97;11.47;;;;;;;12.57;72.17;100990.13;10255888;28;20228;-63
2022/03/26 10:20:33;;;;;;;28.47;12.47;;;;;;;12.38;73.08;100999.84;10256486;28;20307;-62
2022/03/26 10:25:36;;;;;;;27.33;12.57;;;;;;;12.44;73.54;100991.97;10255891;28;20239;-61
2022/03/26 10:36:04;;;;;;;22.07;11.80;;;;;;;12.13;78.25;101021.66;10254651;28;20702;-62
2022/03/26 10:41:09;;;;;;;22.70;13.00;;;;;;;11.93;80.28;101022.66;10255021;28;20222;-61
2022/03/26 10:46:23;;;;;;;25.93;11.80;;;;;;;12.13;79.43;101015.63;10251692;29;20220;-61
2022/03/26 10:51:27;;;;;;;22.60;13.00;;;;;;;12.10;79.32;101020.81;10253127;29;20322;-63
2022/03/26 10:56:30;;;;;;;23.50;11.17;;;;;;;12.09;78.66;101014.78;10253398;28;20299;-62
2022/03/26 11:01:35;;;;;;;18.90;10.33;;;;;;;12.12;77.93;101027.75;10253456;28;20686;-64
2022/03/26 11:06:40;;;;;;;21.70;11.10;;;;;;;12.17;76.86;101022.50;10253680;28;20216;-63
2022/03/26 11:11:45;;;;;;;18.73;10.07;;;;;;;12.12;77.07;101017.34;10250013;29;20223;-64
2022/03/26 11:17:03;;;;;;;19.47;10.20;;;;;;;12.29;76.03;101014.63;10250483;28;20238;-62
2022/03/26 11:22:34;;;;;;;24.13;10.33;;;;;;;12.35;75.52;101019.81;10250565;28;20294;-63
2022/03/26 11:27:54;;;;;;;17.83;9.23;;;;;;;12.34;75.11;101016.34;10251594;29;20263;-64
2022/03/26 11:33:09;;;;;;;17.63;10.00;;;;;;;12.54;74.72;101022.28;10252451;29;20230;-61
2022/03/26 11:38:13;;;;;;;18.00;9.73;;;;;;;12.70;73.58;101010.00;10250201;29;20666;-62
2022/03/26 11:43:18;;;;;;;18.73;9.83;;;;;;;12.73;73.25;101003.00;10252404;28;20566;-63
2022/03/26 11:54:06;;;;;;;26.87;10.30;;;;;;;12.48;73.44;101014.50;10252503;28;20699;-63
2022/03/26 11:59:27;;;;;;;19.13;10.53;;;;;;;12.34;73.95;101023.28;10252813;28;20220;-65
2022/03/26 12:04:48;;;;;;;16.83;10.63;;;;;;;12.26;74.42;101028.53;10252677;28;20240;-65
2022/03/26 12:10:11;;;;;;;17.27;8.93;;;;;;;12.15;75.21;101027.72;10252340;28;20242;-62
2022/03/26 12:15:29;;;;;;;17.10;9.60;;;;;;;12.15;75.10;101024.28;10252338;28;20219;-63
2022/03/26 12:20:36;;;;;;;21.90;10.13;;;;;;;12.10;75.59;101018.22;10252317;28;20238;-63
2022/03/26 12:25:51;;;;;;;56.33;11.83;;;;;;;12.12;75.69;101016.47;10254485;28;20309;-65
2022/03/26 12:30:55;;;;;;;19.63;9.97;;;;;;;11.99;76.00;101015.69;10261269;28;20550;-65
2022/03/26 12:36:00;;;;;;;17.80;10.03;;;;;;;12.10;75.85;101036.44;10263072;28;20581;-62
2022/03/26 12:41:05;;;;;;;22.50;10.80;;;;;;;12.02;76.23;101039.09;10262794;28;20234;-64
2022/03/26 12:46:12;;;;;;;18.57;9.53;;;;;;;12.02;76.10;101038.22;10262625;28;20220;-64
2022/03/26 12:51:17;;;;;;;18.33;8.80;;;;;;;12.08;75.20;101038.19;10262590;29;20220;-62
2022/03/26 12:56:20;;;;;;;18.17;7.80;;;;;;;12.04;74.77;101042.56;10262199;29;20243;-65
2022/03/26 13:01:24;;;;;;;16.53;7.83;;;;;;;11.98;74.94;101052.97;10262120;28;20224;-62
2022/03/26 13:06:30;;;;;;;16.87;7.40;;;;;;;12.06;74.23;101035.59;10261853;29;20544;-64
2022/03/26 13:11:33;;;;;;;14.30;6.40;;;;;;;12.12;73.85;101042.50;10261578;29;20250;-64
2022/03/26 13:16:37;;;;;;;11.93;5.73;;;;;;;12.27;71.92;101038.06;10261592;28;20224;-63
2022/03/26 13:21:44;;;;;;;14.93;6.37;;;;;;;12.36;71.26;101042.34;10261272;29;20558;-62
2022/03/26 13:26:50;;;;;;;14.20;6.37;;;;;;;12.71;70.43;101032.56;10261275;29;20220;-64
2022/03/26 13:31:54;;;;;;;13.83;6.40;;;;;;;12.61;71.06;101038.72;10260901;29;20228;-64
2022/03/26 13:37:09;;;;;;;16.90;6.83;;;;;;;12.49;71.73;101031.00;10261167;29;20234;-63
2022/03/26 13:42:15;;;;;;;16.83;6.90;;;;;;;12.60;71.33;101040.44;10260122;28;20216;-63
2022/03/26 13:47:20;;;;;;;16.73;8.00;;;;;;;12.74;71.36;101036.00;10260414;28;20216;-62
2022/03/26 13:52:27;;;;;;;15.57;7.10;;;;;;;12.79;70.88;101039.44;10260412;29;20242;-63
2022/03/26 13:57:31;;;;;;;15.47;7.67;;;;;;;12.85;70.02;101022.91;10259790;29;20230;-62
2022/03/26 14:02:36;;;;;;;15.47;7.07;;;;;;;12.93;69.30;101036.72;10260367;28;20246;-63
2022/03/26 14:07:43;;;;;;;15.87;7.63;;;;;;;13.13;68.62;101034.81;10259722;29;20220;-61
2022/03/26 14:12:46;;;;;;;17.27;7.47;;;;;;;13.17;68.32;101039.13;10259220;29;20547;-63
2022/03/26 14:17:50;;;;;;;21.63;7.13;;;;;;;13.17;67.69;101041.72;10259450;28;20232;-65
2022/03/26 14:22:56;;;;;;;11.57;6.27;;;;;;;13.07;68.58;101047.91;10259083;28;20231;-63
2022/03/26 14:28:01;;;;;;;13.17;6.10;;;;;;;13.11;67.38;101035.72;10259159;28;20224;-66
2022/03/26 14:33:05;;;;;;;11.87;6.47;;;;;;;13.14;66.40;101033.94;10258756;29;20319;-63
2022/03/26 14:38:10;;;;;;;12.97;6.60;;;;;;;12.83;67.58;101048.09;10258416;28;20224;-64
2022/03/26 14:43:14;;;;;;;12.07;6.03;;;;;;;12.92;67.15;101035.00;10259056;29;20662;-63
2022/03/26 14:48:17;;;;;;;17.27;7.20;;;;;;;12.79;67.61;101057.66;9914139;28;10000380;-63
2022/03/26 14:53:22;;;;;;;13.33;6.00;;;;;;;12.72;68.31;101062.94;10253756;28;20294;-64
2022/03/26 14:58:26;;;;;;;13.53;7.33;;;;;;;12.45;69.55;101066.59;10255129;28;20235;-64
2022/03/26 15:03:29;;;;;;;14.93;6.90;;;;;;;12.45;69.52;101068.34;10263206;28;20846;-65
2022/03/26 15:08:34;;;;;;;14.97;6.07;;;;;;;12.47;69.56;101066.59;10294107;28;20224;-64
2022/03/26 15:13:38;;;;;;;13.87;6.67;;;;;;;12.51;69.25;101076.97;10294121;28;20302;-62
2022/03/26 15:18:41;;;;;;;15.37;7.63;;;;;;;12.44;69.85;101074.44;10293843;28;20276;-65
2022/03/26 15:23:46;;;;;;;11.37;6.60;;;;;;;12.37;69.66;101070.13;10293852;28;20202;-65
2022/03/26 15:28:50;;;;;;;14.70;7.53;;;;;;;12.45;69.61;101079.63;10293676;28;20602;-67
2022/03/26 15:33:53;;;;;;;20.83;8.10;;;;;;;12.64;69.15;101081.22;10293183;28;20216;-63
2022/03/26 15:38:58;;;;;;;14.57;6.97;;;;;;;12.93;67.48;101103.56;10293364;28;20218;-63
2022/03/26 15:44:01;;;;;;;11.53;5.93;;;;;;;13.16;66.76;101113.00;10293264;28;20231;-62
2022/03/26 15:49:04;;;;;;;19.40;6.93;;;;;;;13.57;65.30;101105.63;10279299;28;20196;-62
2022/03/26 15:54:09;;;;;;;14.57;6.33;;;;;;;13.27;64.78;101110.28;10253188;29;20224;-65
2022/03/26 15:59:12;;;;;;;11.87;6.40;;;;;;;12.73;66.44;101116.75;10252840;29;20774;-63
2022/03/26 16:04:15;;;;;;;17.77;6.07;;;;;;;12.50;67.59;101129.06;10257729;28;20242;-62
2022/03/26 16:09:20;;;;;;;12.80;5.80;;;;;;;12.51;65.86;101130.81;10261201;28;20220;-62
2022/03/26 16:14:25;;;;;;;17.17;6.10;;;;;;;12.45;65.05;101139.50;10260638;29;20673;-62
2022/03/26 16:19:29;;;;;;;12.53;4.60;;;;;;;12.25;64.20;101143.06;10260771;29;20192;-60
2022/03/26 16:24:35;;;;;;;11.30;4.40;;;;;;;12.11;63.71;101142.25;10259060;29;20565;-62
2022/03/26 16:29:38;;;;;;;10.03;3.70;;;;;;;11.98;61.00;101154.44;10258893;28;20303;-62
2022/03/26 16:34:42;;;;;;;9.20;3.40;;;;;;;11.84;58.94;101152.78;10259292;29;20254;-62
2022/03/26 16:39:49;;;;;;;10.87;3.10;;;;;;;11.54;58.12;101164.88;10259876;29;20307;-61
2022/03/26 16:44:53;;;;;;;11.40;3.00;;;;;;;11.52;57.13;101184.84;10259444;28;20316;-64
2022/03/26 16:49:56;;;;;;;7.50;2.40;;;;;;;11.46;57.24;101194.38;10259741;28;20323;-63
2022/03/26 16:55:08;;;;;;;9.27;3.37;;;;;;;11.30;57.35;101192.66;10258471;29;20220;-60
2022/03/26 17:00:13;;;;;;;10.50;2.30;;;;;;;11.20;57.38;101198.72;10259703;28;20236;-63
2022/03/26 17:05:17;;;;;;;12.33;2.40;;;;;;;11.09;56.93;101203.91;10258775;28;20278;-63
2022/03/26 17:10:22;;;;;;;7.47;2.50;;;;;;;10.98;56.10;101218.59;10258480;28;20307;-63
2022/03/26 17:15:26;;;;;;;9.00;2.50;;;;;;;10.86;56.37;101235.88;10256421;28;20235;-63
2022/03/26 17:20:30;;;;;;;23.03;9.00;;;;;;;10.63;56.72;101253.97;10258141;28;20320;-60
2022/03/26 17:25:35;;;;;;;10.43;2.23;;;;;;;10.44;55.92;101258.22;10258033;28;20239;-62
2022/03/26 17:30:38;;;;;;;9.63;2.77;;;;;;;10.15;56.30;101274.47;10258504;28;20275;-63
2022/03/26 17:35:42;;;;;;;14.50;2.20;;;;;;;9.92;54.74;101291.59;10257452;28;20243;-65
2022/03/26 17:40:47;;;;;;;15.93;5.43;;;;;;;9.80;54.45;101301.88;10257425;28;20220;-61
2022/03/26 17:45:50;;;;;;;7.73;2.40;;;;;;;9.74;52.26;101315.63;10257342;28;20224;-60
2022/03/26 17:50:53;;;;;;;6.67;1.77;;;;;;;9.78;51.10;101339.84;10256625;28;20538;-63
2022/03/26 17:55:58;;;;;;;6.77;1.70;;;;;;;9.67;49.59;101349.25;10256650;29;20224;-63
2022/03/26 18:01:01;;;;;;;12.07;2.57;;;;;;;9.54;48.17;101350.00;10256736;28;20555;-73
2022/03/26 18:06:06;;;;;;;15.13;2.00;;;;;;;9.38;47.98;101354.16;10256720;29;20243;-73
2022/03/26 18:11:10;;;;;;;13.93;1.60;;;;;;;9.10;47.00;101378.00;10256774;29;20247;-72
2022/03/26 18:16:14;;;;;;;6.83;1.97;;;;;;;9.02;46.86;101375.34;10256162;28;20228;-70
2022/03/26 18:21:17;;;;;;;12.80;3.20;;;;;;;8.91;46.38;101402.78;10255839;28;20905;-72
2022/03/26 18:26:22;;;;;;;8.30;2.10;;;;;;;8.74;46.34;101393.94;10256034;28;20311;-71
2022/03/26 18:31:27;;;;;;;8.47;1.83;;;;;;;8.64;45.92;101415.34;10257784;28;20673;-73
2022/03/26 18:36:32;;;;;;;5.50;1.60;;;;;;;8.58;46.01;101417.84;10256642;28;20339;-67
2022/03/26 18:41:39;;;;;;;6.17;2.30;;;;;;;8.30;46.77;101449.28;10254661;28;20259;-68
2022/03/26 18:46:42;;;;;;;5.53;1.80;;;;;;;8.27;45.83;101462.19;10254872;29;20228;-67
2022/03/26 18:51:46;;;;;;;7.07;2.30;;;;;;;8.10;45.98;101482.56;10254212;29;20378;-65
2022/03/26 18:56:51;;;;;;;13.53;2.37;;;;;;;7.96;46.64;101489.19;10255246;28;20250;-71
2022/03/26 19:01:54;;;;;;;6.93;1.37;;;;;;;7.68;46.68;101506.72;10253895;29;20331;-69
2022/03/26 19:06:58;;;;;;;5.50;1.50;;;;;;;7.61;47.14;101528.97;10255639;28;20302;-67
2022/03/26 19:12:04;;;;;;;6.93;1.37;;;;;;;7.42;47.88;101531.16;10257640;28;20247;-71
2022/03/26 19:17:07;;;;;;;4.23;1.07;;;;;;;7.32;48.39;101545.56;10254517;29;20221;-72
2022/03/26 19:22:10;;;;;;;7.83;1.33;;;;;;;7.26;48.55;101555.75;10254227;28;20275;-71
2022/03/26 19:27:17;;;;;;;5.57;1.43;;;;;;;7.18;48.39;101567.59;10253781;28;20235;-71
2022/03/26 19:32:22;;;;;;;7.00;1.33;;;;;;;7.11;47.92;101570.03;10253604;29;20267;-72
2022/03/26 19:37:26;;;;;;;6.20;1.40;;;;;;;7.02;48.68;101575.84;10254079;28;20202;-70
2022/03/26 19:42:31;;;;;;;6.13;1.37;;;;;;;6.75;48.58;101573.47;10253668;29;20218;-73
2022/03/26 19:47:34;;;;;;;4.80;1.50;;;;;;;6.70;49.23;101599.97;10259886;29;20627;-71
2022/03/26 19:52:37;;;;;;;7.47;1.70;;;;;;;6.65;48.75;101619.63;10253497;29;20232;-70
2022/03/26 19:57:42;;;;;;;6.07;1.20;;;;;;;6.49;49.82;101622.66;10253278;29;20198;-71
2022/03/26 20:02:45;;;;;;;9.73;2.30;;;;;;;6.38;51.09;101632.69;10253073;29;20246;-71
2022/03/26 20:07:49;;;;;;;6.60;1.50;;;;;;;6.30;51.10;101643.63;10253592;29;20594;-73
2022/03/26 20:12:54;;;;;;;4.60;1.60;;;;;;;6.19;51.25;101648.47;10256367;28;20311;-71
2022/03/26 20:23:20;;;;;;;10.27;3.60;;;;;;;6.00;51.78;101668.50;10258782;28;20228;-72
2022/03/26 20:28:25;;;;;;;9.87;1.93;;;;;;;5.99;51.49;101675.34;10255773;28;20230;-71
2022/03/26 20:33:28;;;;;;;6.13;1.30;;;;;;;5.88;51.03;101683.59;10255429;29;20307;-71
2022/03/26 20:38:32;;;;;;;5.47;1.40;;;;;;;5.79;52.17;101697.06;10255607;29;20679;-70
2022/03/26 20:43:36;;;;;;;7.90;1.63;;;;;;;5.74;53.29;101725.25;10255242;28;20307;-70
2022/03/26 20:48:40;;;;;;;5.13;1.53;;;;;;;5.74;51.91;101730.41;10256055;28;20248;-71
2022/03/26 20:53:43;;;;;;;7.33;1.40;;;;;;;5.68;52.16;101739.63;10262503;28;20232;-69
2022/03/26 20:58:48;;;;;;;7.77;1.90;;;;;;;5.64;51.65;101727.50;10264306;28;20216;-70
2022/03/26 21:03:51;;;;;;;7.30;1.70;;;;;;;5.63;53.36;101738.59;10262008;29;20708;-71
2022/03/26 21:08:54;;;;;;;5.27;1.33;;;;;;;5.65;53.61;101747.25;10259887;29;20220;-72
2022/03/26 21:13:59;;;;;;;8.57;2.10;;;;;;;5.56;54.51;101752.09;10258638;28;20229;-69
2022/03/26 21:19:03;;;;;;;8.57;2.10;;;;;;;5.45;54.58;101766.34;10258947;29;20216;-71
2022/03/26 21:24:07;;;;;;;7.07;2.10;;;;;;;5.46;54.44;101770.66;10258368;28;20216;-72
2022/03/26 21:29:13;;;;;;;9.00;2.03;;;;;;;5.39;54.12;101772.16;10258355;28;20220;-68
2022/03/26 21:34:16;;;;;;;7.57;2.27;;;;;;;5.33;54.27;101782.22;10263419;28;20331;-70
2022/03/26 21:39:19;;;;;;;7.73;2.00;;;;;;;5.28;54.41;101781.22;10258148;28;20282;-68
2022/03/26 21:44:25;;;;;;;10.17;1.97;;;;;;;5.19;54.89;101795.47;9915371;28;9999777;-72
2022/03/26 21:49:28;;;;;;;7.97;2.13;;;;;;;5.28;53.94;101796.66;10256510;28;20238;-69
2022/03/26 21:54:31;;;;;;;5.00;1.53;;;;;;;5.20;54.07;101807.50;10255098;29;20220;-71
2022/03/26 21:59:36;;;;;;;6.47;1.90;;;;;;;5.08;54.79;101813.09;10256213;28;20217;-71
2022/03/26 22:04:39;;;;;;;7.83;2.33;;;;;;;5.01;55.19;101820.53;10256707;28;20578;-71
2022/03/26 22:09:43;;;;;;;9.20;1.77;;;;;;;5.07;54.26;101825.94;10256842;28;20223;-73
2022/03/26 22:14:47;;;;;;;8.27;2.73;;;;;;;4.95;55.48;101834.09;10261717;28;20673;-71
2022/03/26 22:19:51;;;;;;;6.03;2.03;;;;;;;4.86;55.35;101838.00;10257846;28;20280;-72
2022/03/26 22:24:54;;;;;;;7.50;2.23;;;;;;;4.91;55.67;101846.75;10256230;28;20964;-70
2022/03/26 22:29:59;;;;;;;6.10;2.00;;;;;;;4.54;57.50;101847.97;10256061;28;20216;-65
2022/03/26 22:35:03;;;;;;;10.00;2.30;;;;;;;4.54;59.22;101858.25;10256356;29;20220;-71
2022/03/26 22:40:24;;;;;;;7.87;2.37;;;;;;;4.68;58.71;101857.09;10258509;28;20251;-71
2022/03/26 22:45:30;;;;;;;10.43;2.73;;;;;;;4.63;58.20;101856.03;10263570;28;20240;-71
2022/03/26 22:50:34;;;;;;;8.00;2.57;;;;;;;4.56;58.74;101854.06;10257777;29;20226;-72
2022/03/26 22:55:40;;;;;;;10.10;2.33;;;;;;;4.35;58.46;101862.63;10256148;29;20224;-66
2022/03/26 23:01:23;;;;;;;9.53;2.47;;;;;;;4.19;58.79;101874.03;10255815;28;20226;-70
2022/03/26 23:06:27;;;;;;;11.90;2.37;;;;;;;4.31;58.08;101871.94;10259594;29;20334;-73
2022/03/26 23:11:31;;;;;;;8.33;2.23;;;;;;;4.43;57.09;101874.97;10255201;28;20224;-71
2022/03/26 23:16:34;;;;;;;13.20;2.50;;;;;;;4.27;58.11;101882.91;10259195;29;20224;-72
2022/03/26 23:21:39;;;;;;;8.87;2.40;;;;;;;4.22;58.61;101889.56;10261372;29;20553;-75
2022/03/26 23:26:42;;;;;;;11.30;2.17;;;;;;;4.30;58.64;101888.16;10258905;29;20308;-73